Time;durP1;ratioP1;P1;durP2;ratioP2;P2;SDS_P1;SDS_P2;PMS_P1;PMS_P2;Temp;Humidity;BMP_temperature;BMP_pressure;BME280_temperature;BME280_humidity;BME280_pressure;Samples;Min_cycle;Max_cycle;Signal;HPM_P1;HPM_P2
2023/06/30 00:02:08;;;;;;;7.60;4.70;;;15.60;99.90;;;;;;5054827;28;20098;-70
2023/06/30 00:04:35;;;;;;;7.47;4.53;;;15.60;99.90;;;;;;5054939;28;20045;-70
2023/06/30 00:07:01;;;;;;;9.25;4.93;;;15.50;99.90;;;;;;5054256;28;20048;-71
2023/06/30 00:09:27;;;;;;;6.20;3.78;;;15.50;99.90;;;;;;5054179;28;20045;-72
2023/06/30 00:11:54;;;;;;;6.88;4.60;;;15.50;99.90;;;;;;5054433;28;20053;-71
2023/06/30 00:14:21;;;;;;;5.93;4.57;;;15.40;99.90;;;;;;5053658;28;20048;-71
2023/06/30 00:16:47;;;;;;;8.90;4.13;;;15.40;99.90;;;;;;5053540;28;20063;-71
2023/06/30 00:19:13;;;;;;;8.90;3.75;;;15.30;99.90;;;;;;5054040;28;20051;-71
2023/06/30 00:21:42;;;;;;;7.05;4.30;;;15.30;99.90;;;;;;5054055;28;20128;-71
2023/06/30 00:24:14;;;;;;;6.32;4.60;;;15.30;99.90;;;;;;5054043;28;20041;-71
2023/06/30 00:26:40;;;;;;;7.70;4.32;;;15.20;99.90;;;;;;5053003;28;20149;-71
2023/06/30 00:29:07;;;;;;;6.32;4.28;;;15.20;99.90;;;;;;5054068;28;20426;-71
2023/06/30 00:31:33;;;;;;;5.53;4.22;;;15.20;99.90;;;;;;5053791;28;20102;-71
2023/06/30 00:33:58;;;;;;;5.60;3.20;;;15.10;99.90;;;;;;5053947;28;20098;-71
2023/06/30 00:36:24;;;;;;;6.20;3.92;;;15.10;99.90;;;;;;5055396;28;20041;-71
2023/06/30 00:38:51;;;;;;;8.05;3.80;;;15.10;99.90;;;;;;5054155;28;20106;-71
2023/06/30 00:41:18;;;;;;;6.63;3.88;;;15.00;99.90;;;;;;5054211;28;20045;-71
2023/06/30 00:43:44;;;;;;;11.65;5.57;;;15.00;99.90;;;;;;5053832;28;20056;-71
2023/06/30 00:46:13;;;;;;;7.93;4.50;;;15.00;99.90;;;;;;5054170;28;20045;-71
2023/06/30 00:48:39;;;;;;;6.18;4.40;;;15.00;99.90;;;;;;5053622;28;20045;-71
2023/06/30 00:51:05;;;;;;;6.93;4.47;;;14.90;99.90;;;;;;5053763;28;20049;-71
2023/06/30 00:53:31;;;;;;;4.90;4.10;;;14.90;99.90;;;;;;5053626;28;20364;-72
2023/06/30 00:55:57;;;;;;;9.77;4.25;;;14.90;99.90;;;;;;5053769;28;20045;-72
2023/06/30 00:58:23;;;;;;;5.68;4.22;;;14.90;99.90;;;;;;5052259;28;20048;-71
2023/06/30 01:00:58;;;;;;;11.13;5.35;;;14.80;99.90;;;;;;5052880;28;20049;-71
2023/06/30 01:03:26;;;;;;;8.05;4.13;;;14.80;99.90;;;;;;5053433;28;20128;-71
2023/06/30 01:06:09;;;;;;;7.50;3.80;;;14.80;99.90;;;;;;5053389;28;20049;-71
2023/06/30 01:09:08;;;;;;;5.68;3.88;;;14.70;99.90;;;;;;5052077;28;20076;-71
2023/06/30 01:11:35;;;;;;;7.70;3.75;;;14.70;99.90;;;;;;5049884;28;20056;-71
2023/06/30 01:14:04;;;;;;;5.32;4.10;;;14.70;99.90;;;;;;5051855;28;20103;-71
2023/06/30 01:16:31;;;;;;;8.32;4.38;;;14.70;99.90;;;;;;5053088;28;20045;-71
2023/06/30 01:18:58;;;;;;;5.60;4.10;;;14.60;99.90;;;;;;5052321;28;20125;-72
2023/06/30 01:21:24;;;;;;;8.07;5.00;;;14.70;99.90;;;;;;5053398;28;20053;-71
2023/06/30 01:23:58;;;;;;;8.10;3.95;;;14.70;99.90;;;;;;5052441;28;20045;-73
2023/06/30 01:26:25;;;;;;;5.03;4.03;;;14.60;99.90;;;;;;5052882;28;20068;-71
2023/06/30 01:28:51;;;;;;;4.32;3.63;;;14.60;99.90;;;;;;5053044;28;20084;-70
2023/06/30 01:31:19;;;;;;;7.55;4.13;;;14.60;99.90;;;;;;5035159;28;20450;-71
2023/06/30 01:33:44;;;;;;;9.23;4.40;;;14.60;99.90;;;;;;5053182;28;20052;-70
2023/06/30 01:36:10;;;;;;;5.60;3.92;;;14.60;99.90;;;;;;5052697;28;20041;-71
2023/06/30 01:38:36;;;;;;;6.15;3.75;;;14.60;99.90;;;;;;5051910;28;20355;-71
2023/06/30 01:41:02;;;;;;;4.93;4.07;;;14.50;99.90;;;;;;5056673;28;20087;-72
2023/06/30 01:43:29;;;;;;;7.57;3.92;;;14.50;99.90;;;;;;5056132;28;20060;-73
2023/06/30 01:45:55;;;;;;;7.07;3.70;;;14.50;99.90;;;;;;5055872;28;20060;-71
2023/06/30 01:48:22;;;;;;;7.03;3.65;;;14.40;99.90;;;;;;5056007;28;20049;-72
2023/06/30 01:50:49;;;;;;;7.68;4.40;;;14.40;99.90;;;;;;5052592;28;20053;-72
2023/06/30 01:53:15;;;;;;;7.60;4.03;;;14.30;99.90;;;;;;5052403;28;20055;-72
2023/06/30 01:55:47;;;;;;;6.28;3.92;;;14.30;99.90;;;;;;5052669;28;20041;-72
2023/06/30 01:58:13;;;;;;;5.57;3.15;;;14.30;99.90;;;;;;5052717;28;20047;-72
2023/06/30 02:00:39;;;;;;;5.55;3.33;;;14.30;99.90;;;;;;5034592;28;20079;-72
2023/06/30 02:03:04;;;;;;;6.72;3.15;;;14.30;99.90;;;;;;5051215;28;20498;-72
2023/06/30 02:05:30;;;;;;;6.25;3.70;;;14.20;99.90;;;;;;5052666;28;20045;-72
2023/06/30 02:07:56;;;;;;;4.60;3.00;;;14.20;99.90;;;;;;5052146;28;20045;-71
2023/06/30 02:10:21;;;;;;;8.00;3.85;;;14.20;99.90;;;;;;5052312;28;20179;-72
2023/06/30 02:12:47;;;;;;;9.00;4.50;;;14.10;99.90;;;;;;5052541;28;20151;-71
2023/06/30 02:15:13;;;;;;;5.97;3.42;;;14.10;99.90;;;;;;5051988;28;20051;-71
2023/06/30 02:17:40;;;;;;;6.97;3.70;;;14.10;99.90;;;;;;5052419;28;20095;-71
2023/06/30 02:20:06;;;;;;;6.30;3.40;;;14.10;99.90;;;;;;5052180;28;20057;-71
2023/06/30 02:22:32;;;;;;;11.02;3.83;;;14.00;99.90;;;;;;5052111;28;20041;-72
2023/06/30 02:24:59;;;;;;;6.72;3.78;;;14.00;99.90;;;;;;5052422;28;20102;-72
2023/06/30 02:27:26;;;;;;;5.07;3.70;;;14.00;99.90;;;;;;5052112;28;20131;-72
2023/06/30 02:29:52;;;;;;;7.18;3.38;;;14.00;99.90;;;;;;5052073;28;20044;-71
2023/06/30 02:32:18;;;;;;;4.35;3.45;;;13.90;99.90;;;;;;5052381;28;20041;-72
2023/06/30 02:34:44;;;;;;;7.53;4.18;;;13.90;99.90;;;;;;5052061;28;20124;-72
2023/06/30 02:37:10;;;;;;;3.85;3.40;;;13.80;99.90;;;;;;5055693;28;20099;-72
2023/06/30 02:39:36;;;;;;;6.00;3.92;;;13.80;99.90;;;;;;5057299;28;20182;-71
2023/06/30 02:42:02;;;;;;;5.65;3.67;;;13.80;99.90;;;;;;5023170;28;20495;-72
2023/06/30 02:44:28;;;;;;;5.60;3.60;;;13.70;99.90;;;;;;5056080;28;20053;-72
2023/06/30 02:46:54;;;;;;;5.57;3.88;;;13.70;99.90;;;;;;5056488;28;20445;-72
2023/06/30 02:49:20;;;;;;;4.43;3.17;;;13.70;99.90;;;;;;5056454;28;20507;-72
2023/06/30 02:51:45;;;;;;;6.55;3.67;;;13.70;99.90;;;;;;5056020;28;20057;-72
2023/06/30 02:54:11;;;;;;;6.07;3.38;;;13.60;99.90;;;;;;5055021;28;20419;-72
2023/06/30 02:56:36;;;;;;;7.72;3.58;;;13.60;99.90;;;;;;5038552;28;20052;-72
2023/06/30 02:59:02;;;;;;;4.32;3.75;;;13.60;99.90;;;;;;5054836;28;20037;-72
2023/06/30 03:01:28;;;;;;;7.10;3.20;;;13.60;99.90;;;;;;5055743;28;20493;-71
2023/06/30 03:03:53;;;;;;;7.82;4.15;;;13.60;99.90;;;;;;5055743;28;20128;-72
2023/06/30 03:06:20;;;;;;;6.63;3.70;;;13.50;99.90;;;;;;5055554;28;20124;-71
2023/06/30 03:08:46;;;;;;;5.75;3.72;;;13.50;99.90;;;;;;5055941;28;20053;-71
2023/06/30 03:11:11;;;;;;;7.53;3.53;;;13.50;99.90;;;;;;5055695;28;20544;-72
2023/06/30 03:13:37;;;;;;;5.00;3.60;;;13.40;99.90;;;;;;5055507;28;20120;-72
2023/06/30 03:16:04;;;;;;;6.25;3.38;;;13.40;99.90;;;;;;5055889;28;20477;-71
2023/06/30 03:18:30;;;;;;;7.18;3.53;;;13.40;99.90;;;;;;5055283;28;20053;-72
2023/06/30 03:20:55;;;;;;;5.13;3.58;;;13.40;99.90;;;;;;5055429;28;20041;-72
2023/06/30 03:23:21;;;;;;;4.45;3.72;;;13.40;99.90;;;;;;5055650;28;20111;-72
2023/06/30 03:25:47;;;;;;;7.45;4.28;;;13.30;99.90;;;;;;5055288;28;20102;-71
2023/06/30 03:28:13;;;;;;;5.30;3.65;;;13.30;99.90;;;;;;5055406;28;20037;-72
2023/06/30 03:30:38;;;;;;;4.75;3.65;;;13.30;99.90;;;;;;5055328;28;20508;-73
2023/06/30 03:33:05;;;;;;;8.07;4.47;;;13.30;99.90;;;;;;5055427;28;20124;-72
2023/06/30 03:35:30;;;;;;;8.38;3.58;;;13.30;99.90;;;;;;5055146;28;20045;-71
2023/06/30 03:37:56;;;;;;;5.05;2.97;;;13.20;99.90;;;;;;5055272;28;20060;-71
2023/06/30 03:40:22;;;;;;;7.88;4.35;;;13.30;99.90;;;;;;5055095;28;20433;-72
2023/06/30 03:42:48;;;;;;;4.75;3.28;;;13.30;99.90;;;;;;5053891;28;20051;-71
2023/06/30 03:45:13;;;;;;;5.97;3.70;;;13.30;99.90;;;;;;5055422;28;20128;-71
2023/06/30 03:47:39;;;;;;;4.20;2.97;;;13.30;99.90;;;;;;5054572;28;20037;-72
2023/06/30 03:50:05;;;;;;;8.60;3.78;;;13.30;99.90;;;;;;5054940;28;20059;-71
2023/06/30 03:52:31;;;;;;;5.72;3.45;;;13.20;99.90;;;;;;5054594;28;20416;-71
2023/06/30 03:54:57;;;;;;;7.03;3.58;;;13.20;99.90;;;;;;5054794;28;20045;-69
2023/06/30 03:57:22;;;;;;;4.65;3.40;;;13.20;99.90;;;;;;5054827;28;20051;-71
2023/06/30 03:59:48;;;;;;;6.75;2.97;;;13.20;99.90;;;;;;5055182;28;20459;-72
2023/06/30 04:02:14;;;;;;;5.72;4.07;;;13.20;99.90;;;;;;5054244;28;20037;-72
2023/06/30 04:04:39;;;;;;;6.72;3.85;;;13.20;99.90;;;;;;5053275;28;20049;-71
2023/06/30 04:07:05;;;;;;;4.25;3.53;;;13.20;99.90;;;;;;5054422;28;20048;-71
2023/06/30 04:09:31;;;;;;;4.63;3.50;;;13.20;99.90;;;;;;5054432;28;20049;-71
2023/06/30 04:11:57;;;;;;;6.05;3.97;;;13.10;99.90;;;;;;5054343;28;20041;-71
2023/06/30 04:14:22;;;;;;;5.50;3.22;;;13.10;99.90;;;;;;5055037;28;20554;-71
2023/06/30 04:16:48;;;;;;;7.60;3.40;;;13.10;99.90;;;;;;5053990;28;20468;-71
2023/06/30 04:19:14;;;;;;;8.45;3.60;;;13.10;99.90;;;;;;5054519;28;20120;-71
2023/06/30 04:21:39;;;;;;;6.43;3.40;;;13.10;99.90;;;;;;5052891;28;20056;-71
2023/06/30 04:24:05;;;;;;;5.78;3.95;;;13.20;99.90;;;;;;5054269;28;20049;-71
2023/06/30 04:26:31;;;;;;;4.22;3.70;;;13.10;99.90;;;;;;5053929;28;20431;-71
2023/06/30 04:28:57;;;;;;;4.07;2.97;;;13.20;99.90;;;;;;5054196;28;20045;-71
2023/06/30 04:31:23;;;;;;;5.82;3.40;;;13.20;99.90;;;;;;5053692;28;20041;-71
2023/06/30 04:33:49;;;;;;;9.57;4.00;;;13.20;99.90;;;;;;5054454;28;20083;-72
2023/06/30 04:36:17;;;;;;;6.05;3.97;;;13.20;99.90;;;;;;5053992;28;20051;-71
2023/06/30 04:38:46;;;;;;;4.55;3.38;;;13.30;99.90;;;;;;5053642;28;20064;-71
2023/06/30 04:41:12;;;;;;;6.20;4.03;;;13.30;99.90;;;;;;5054057;28;20119;-72
2023/06/30 04:43:38;;;;;;;4.70;4.03;;;13.40;99.90;;;;;;5054422;28;20044;-70
2023/06/30 04:46:03;;;;;;;7.55;3.33;;;13.40;99.90;;;;;;5054072;28;20421;-71
2023/06/30 04:48:29;;;;;;;5.78;3.80;;;13.50;99.90;;;;;;5053880;28;20481;-71
2023/06/30 04:50:55;;;;;;;4.57;4.18;;;13.60;99.90;;;;;;5055904;28;20441;-71
2023/06/30 04:53:21;;;;;;;7.05;3.38;;;13.60;99.90;;;;;;5057912;28;20386;-71
2023/06/30 04:55:50;;;;;;;5.75;3.25;;;13.70;99.90;;;;;;5057219;28;20045;-71
2023/06/30 04:58:16;;;;;;;6.82;3.65;;;13.80;99.90;;;;;;5008058;28;20128;-73
2023/06/30 05:00:43;;;;;;;5.38;3.45;;;13.90;99.90;;;;;;5055165;28;20072;-71
2023/06/30 05:03:09;;;;;;;5.18;3.63;;;13.90;99.90;;;;;;5056900;28;20049;-71
2023/06/30 05:05:34;;;;;;;4.85;3.13;;;14.00;99.90;;;;;;5053461;28;20106;-71
2023/06/30 05:08:00;;;;;;;5.32;3.40;;;14.00;99.90;;;;;;5052552;28;20045;-71
2023/06/30 05:10:26;;;;;;;6.30;3.33;;;14.10;99.90;;;;;;5053046;28;20135;-71
2023/06/30 05:12:51;;;;;;;10.85;3.28;;;14.20;99.90;;;;;;5052967;28;20052;-72
2023/06/30 05:15:17;;;;;;;5.55;3.40;;;14.20;99.90;;;;;;5052850;28;20128;-72
2023/06/30 05:17:43;;;;;;;6.13;3.03;;;14.30;99.90;;;;;;5053253;28;20353;-71
2023/06/30 05:20:09;;;;;;;4.90;3.10;;;14.40;99.90;;;;;;5052692;28;20045;-71
2023/06/30 05:22:35;;;;;;;6.65;2.92;;;14.50;99.90;;;;;;5051567;28;20044;-71
2023/06/30 05:25:01;;;;;;;6.25;3.65;;;14.60;99.90;;;;;;5052742;28;20052;-72
2023/06/30 05:27:27;;;;;;;6.57;4.00;;;14.70;99.90;;;;;;5051320;28;20037;-70
2023/06/30 05:29:52;;;;;;;7.00;3.70;;;14.70;99.90;;;;;;5056000;28;20040;-70
2023/06/30 05:32:18;;;;;;;7.10;4.13;;;14.80;99.90;;;;;;5056084;28;20048;-71
2023/06/30 05:34:46;;;;;;;4.88;3.90;;;14.90;99.90;;;;;;5057702;28;20064;-71
2023/06/30 05:37:12;;;;;;;8.77;3.70;;;14.90;99.90;;;;;;5056419;28;20060;-73
2023/06/30 05:39:38;;;;;;;6.15;3.40;;;15.00;99.90;;;;;;5055773;28;20053;-71
2023/06/30 05:42:05;;;;;;;5.35;3.53;;;15.20;99.90;;;;;;5022337;28;20052;-71
2023/06/30 05:44:30;;;;;;;7.65;3.85;;;15.20;99.90;;;;;;5038986;28;20037;-71
2023/06/30 05:46:56;;;;;;;8.95;3.40;;;15.30;99.90;;;;;;5071179;28;20047;-70
2023/06/30 05:49:22;;;;;;;7.75;3.33;;;15.40;99.90;;;;;;5052475;28;20415;-72
2023/06/30 05:51:48;;;;;;;7.57;3.60;;;15.40;99.90;;;;;;5052758;28;20128;-73
2023/06/30 05:54:14;;;;;;;5.00;3.45;;;15.50;99.90;;;;;;5052491;28;20106;-71
2023/06/30 05:56:40;;;;;;;5.90;3.50;;;15.60;99.90;;;;;;5051777;28;20045;-71
2023/06/30 05:59:10;;;;;;;5.53;3.33;;;15.70;99.90;;;;;;5051735;28;20543;-71
2023/06/30 06:01:38;;;;;;;5.95;3.28;;;15.90;99.90;;;;;;5051056;28;20087;-71
2023/06/30 06:04:13;;;;;;;5.07;2.78;;;16.10;99.90;;;;;;5051424;28;20053;-71
2023/06/30 06:06:39;;;;;;;6.63;3.20;;;16.30;99.90;;;;;;5051974;28;20446;-71
2023/06/30 06:09:04;;;;;;;8.73;3.28;;;16.50;99.90;;;;;;5050568;28;20098;-71
2023/06/30 06:11:30;;;;;;;7.97;5.55;;;16.60;99.90;;;;;;5051751;28;20052;-70
2023/06/30 06:13:56;;;;;;;7.30;3.25;;;16.70;99.90;;;;;;5051843;28;20045;-71
2023/06/30 06:16:22;;;;;;;6.07;3.15;;;16.80;99.90;;;;;;5052197;28;20543;-71
2023/06/30 06:18:48;;;;;;;3.00;2.53;;;16.90;99.90;;;;;;5051101;28;20059;-72
2023/06/30 06:21:16;;;;;;;4.43;2.83;;;17.20;99.90;;;;;;5051998;28;20049;-73
2023/06/30 06:23:41;;;;;;;4.32;2.72;;;17.80;99.90;;;;;;5051869;28;20128;-73
2023/06/30 06:26:07;;;;;;;5.43;2.50;;;18.90;99.90;;;;;;5052139;28;20080;-73
2023/06/30 06:28:33;;;;;;;5.38;2.63;;;19.90;99.90;;;;;;5052254;28;20378;-73
2023/06/30 06:30:59;;;;;;;9.70;2.65;;;20.70;99.90;;;;;;5051874;28;20542;-72
2023/06/30 06:33:25;;;;;;;4.65;2.40;;;21.40;99.90;;;;;;5055006;28;20068;-72
2023/06/30 06:35:51;;;;;;;5.95;2.08;;;21.40;99.90;;;;;;5021474;28;20506;-71
2023/06/30 06:38:18;;;;;;;6.30;2.40;;;21.60;99.90;;;;;;5035441;28;20061;-71
2023/06/30 06:40:45;;;;;;;4.95;1.95;;;22.00;99.90;;;;;;5053134;28;20052;-72
2023/06/30 06:43:11;;;;;;;5.35;2.10;;;22.30;99.90;;;;;;5051793;28;20176;-72
2023/06/30 06:45:36;;;;;;;5.03;1.95;;;22.60;99.90;;;;;;5052061;28;20535;-72
2023/06/30 06:48:23;;;;;;;4.72;2.35;;;23.10;99.90;;;;;;5051380;28;20468;-72
2023/06/30 06:50:51;;;;;;;4.45;2.03;;;23.30;97.50;;;;;;5051375;28;20549;-72
2023/06/30 06:53:19;;;;;;;2.92;1.45;;;23.60;99.90;;;;;;5052060;28;20041;-72
2023/06/30 06:55:48;;;;;;;3.78;2.00;;;23.40;99.90;;;;;;5051646;28;20049;-73
2023/06/30 06:58:14;;;;;;;5.22;2.05;;;23.00;97.60;;;;;;5051863;28;20060;-72
2023/06/30 07:00:39;;;;;;;2.45;1.50;;;22.80;98.70;;;;;;5051695;28;20123;-73
2023/06/30 07:03:05;;;;;;;6.22;1.92;;;23.00;99.90;;;;;;5052336;28;20080;-72
2023/06/30 07:05:31;;;;;;;4.72;1.58;;;23.40;99.50;;;;;;5052028;28;20041;-73
2023/06/30 07:07:57;;;;;;;4.20;1.95;;;23.90;99.30;;;;;;5034154;28;20045;-72
2023/06/30 07:10:23;;;;;;;3.85;1.90;;;24.00;96.90;;;;;;5052983;28;20080;-73
2023/06/30 07:12:49;;;;;;;2.70;1.60;;;24.80;98.40;;;;;;5051800;28;20462;-72
2023/06/30 07:15:15;;;;;;;2.85;1.23;;;24.60;97.50;;;;;;5052439;28;20045;-68
2023/06/30 07:17:41;;;;;;;2.80;1.08;;;24.10;97.70;;;;;;5051750;28;20056;-69
2023/06/30 07:20:07;;;;;;;5.53;1.80;;;23.50;97.50;;;;;;5051495;28;20045;-70
2023/06/30 07:22:33;;;;;;;2.58;1.70;;;23.40;98.00;;;;;;5052426;28;20095;-71
2023/06/30 07:25:02;;;;;;;7.35;1.80;;;23.30;97.20;;;;;;5055268;28;20044;-69
2023/06/30 07:27:28;;;;;;;2.47;1.58;;;22.70;97.00;;;;;;5054616;28;20386;-69
2023/06/30 07:29:53;;;;;;;1.90;1.42;;;22.60;97.80;;;;;;5053871;28;20121;-69
2023/06/30 07:32:19;;;;;;;5.20;1.85;;;23.00;98.10;;;;;;5054886;28;20045;-69
2023/06/30 07:34:44;;;;;;;2.25;1.55;;;23.40;97.40;;;;;;5054840;28;20052;-69
2023/06/30 07:37:10;;;;;;;2.50;1.10;;;23.20;96.10;;;;;;5055258;28;20045;-70
2023/06/30 07:39:36;;;;;;;2.75;1.27;;;23.30;95.80;;;;;;5053842;28;20053;-73
2023/06/30 07:42:01;;;;;;;3.33;1.80;;;23.30;96.40;;;;;;5055322;28;20161;-73
2023/06/30 07:44:27;;;;;;;1.40;1.30;;;22.90;96.30;;;;;;5055335;28;20167;-72
2023/06/30 07:46:53;;;;;;;1.85;1.45;;;22.40;96.10;;;;;;5055108;28;20045;-78
2023/06/30 07:49:20;;;;;;;4.25;1.30;;;22.50;95.50;;;;;;5053703;28;20550;-73
2023/06/30 07:51:46;;;;;;;2.47;1.70;;;23.30;95.90;;;;;;5053719;28;20049;-73
2023/06/30 07:54:12;;;;;;;5.38;1.90;;;24.00;95.90;;;;;;5054760;28;20086;-73
2023/06/30 07:56:39;;;;;;;2.83;1.60;;;24.10;95.10;;;;;;5054155;28;20476;-74
2023/06/30 07:59:05;;;;;;;2.42;1.55;;;24.30;94.20;;;;;;5053704;28;20059;-73
2023/06/30 08:01:30;;;;;;;2.38;1.30;;;24.50;93.70;;;;;;5055227;28;20044;-72
2023/06/30 08:03:57;;;;;;;2.70;1.40;;;23.70;94.30;;;;;;5054779;28;20476;-73
2023/06/30 08:06:22;;;;;;;2.25;1.50;;;23.60;94.20;;;;;;5054552;28;20057;-73
2023/06/30 08:08:48;;;;;;;3.17;1.63;;;24.30;94.10;;;;;;5054739;28;20115;-72
2023/06/30 08:11:14;;;;;;;2.75;1.40;;;24.00;94.80;;;;;;5054168;28;20064;-73
2023/06/30 08:13:39;;;;;;;4.35;1.60;;;24.30;94.80;;;;;;5054188;28;20084;-73
2023/06/30 08:16:05;;;;;;;2.97;1.40;;;24.20;94.70;;;;;;5054257;28;20041;-72
2023/06/30 08:18:31;;;;;;;2.67;1.40;;;24.40;94.30;;;;;;5053077;28;20508;-73
2023/06/30 08:20:57;;;;;;;3.85;1.23;;;24.60;91.50;;;;;;5054102;28;20482;-75
2023/06/30 08:23:24;;;;;;;3.20;1.15;;;25.10;93.10;;;;;;5054367;28;20095;-73
2023/06/30 08:25:53;;;;;;;3.22;1.30;;;24.90;91.90;;;;;;5053185;28;20056;-73
2023/06/30 08:28:19;;;;;;;4.13;1.60;;;25.50;92.80;;;;;;5052909;28;20090;-72
2023/06/30 08:30:45;;;;;;;3.10;1.20;;;25.50;92.30;;;;;;5052926;28;20049;-72
2023/06/30 08:33:10;;;;;;;3.45;1.10;;;24.90;93.10;;;;;;5054229;28;20041;-72
2023/06/30 08:35:36;;;;;;;3.53;1.65;;;24.10;93.30;;;;;;5053105;28;20044;-72
2023/06/30 08:38:01;;;;;;;5.13;1.50;;;23.40;93.10;;;;;;5053672;28;20053;-72
2023/06/30 08:40:30;;;;;;;2.55;1.55;;;23.90;93.30;;;;;;5052710;28;20477;-73
2023/06/30 08:42:59;;;;;;;2.78;1.52;;;24.80;93.60;;;;;;5053011;28;20059;-73
2023/06/30 08:45:28;;;;;;;3.58;1.55;;;25.10;90.30;;;;;;5053864;28;20041;-72
2023/06/30 08:47:59;;;;;;;2.85;1.00;;;25.20;90.50;;;;;;5053517;28;20041;-72
2023/06/30 08:50:26;;;;;;;3.60;1.20;;;24.70;91.20;;;;;;5053781;28;20056;-72
2023/06/30 08:52:52;;;;;;;2.55;1.20;;;25.20;90.00;;;;;;5052639;28;20045;-72
2023/06/30 08:55:18;;;;;;;2.85;1.30;;;25.10;90.70;;;;;;5053644;28;20048;-72
2023/06/30 08:57:45;;;;;;;3.97;1.30;;;25.30;91.60;;;;;;5053607;28;20041;-72
2023/06/30 09:00:11;;;;;;;2.50;1.20;;;24.60;91.20;;;;;;5053668;28;20041;-72
2023/06/30 09:02:38;;;;;;;2.00;0.98;;;24.00;90.60;;;;;;5052507;28;20053;-72
2023/06/30 09:05:05;;;;;;;2.20;1.33;;;23.30;91.30;;;;;;5053286;28;20087;-73
2023/06/30 09:07:50;;;;;;;1.92;1.38;;;23.10;91.20;;;;;;5053036;28;20071;-73
2023/06/30 09:10:16;;;;;;;2.38;1.23;;;23.80;89.30;;;;;;5053265;28;20049;-73
2023/06/30 09:12:46;;;;;;;1.40;1.27;;;24.40;91.60;;;;;;5052050;28;20053;-73
2023/06/30 09:15:16;;;;;;;2.65;1.40;;;25.20;91.10;;;;;;5053294;28;20071;-73
2023/06/30 09:17:43;;;;;;;1.48;1.25;;;25.70;90.80;;;;;;5053030;28;20049;-73
2023/06/30 09:20:11;;;;;;;4.22;1.25;;;26.40;91.10;;;;;;5052868;28;20045;-73
2023/06/30 09:22:40;;;;;;;10.45;2.22;;;26.80;90.30;;;;;;5053248;28;20083;-73
2023/06/30 09:25:07;;;;;;;1.20;0.85;;;27.20;89.10;;;;;;5052095;28;20092;-73
2023/06/30 09:27:36;;;;;;;1.60;0.98;;;27.70;89.40;;;;;;5052401;28;20106;-71
2023/06/30 09:30:02;;;;;;;1.98;1.00;;;27.10;86.00;;;;;;5052386;28;20045;-71
2023/06/30 09:32:32;;;;;;;1.40;1.02;;;27.00;86.50;;;;;;5051877;28;20455;-72
2023/06/30 09:35:17;;;;;;;1.30;0.90;;;27.10;88.30;;;;;;5052973;28;20110;-71
2023/06/30 09:37:43;;;;;;;1.90;1.00;;;26.70;85.70;;;;;;5052860;28;20061;-71
2023/06/30 09:40:16;;;;;;;3.88;1.50;;;26.00;87.70;;;;;;5051514;28;20041;-71
2023/06/30 09:42:44;;;;;;;;;;;26.40;86.90;;;;;;5052902;28;20045;-71
2023/06/30 09:45:11;;;;;;;5.22;1.38;;;26.40;86.70;;;;;;5052031;28;19921;-71
2023/06/30 09:47:36;;;;;;;1.00;0.90;;;25.90;88.60;;;;;;5051963;28;20041;-73
2023/06/30 09:50:04;;;;;;;4.18;1.15;;;25.40;87.70;;;;;;5051541;28;20055;-71
2023/06/30 09:52:31;;;;;;;2.60;1.30;;;24.90;88.80;;;;;;5052740;28;20076;-70
2023/06/30 09:54:57;;;;;;;2.35;1.13;;;24.40;88.50;;;;;;5052401;28;20072;-73
2023/06/30 09:57:27;;;;;;;3.28;1.20;;;24.70;89.10;;;;;;5051151;28;20110;-72
2023/06/30 09:59:53;;;;;;;1.35;0.85;;;25.00;87.90;;;;;;5052610;28;20041;-70
2023/06/30 10:02:18;;;;;;;1.80;0.90;;;24.30;87.00;;;;;;5052271;28;20530;-71
2023/06/30 10:04:44;;;;;;;4.65;1.63;;;24.20;87.90;;;;;;5052781;28;20139;-72
2023/06/30 10:07:13;;;;;;;1.42;0.90;;;24.50;87.20;;;;;;5051043;28;20049;-71
2023/06/30 10:09:42;;;;;;;1.20;1.10;;;24.90;86.10;;;;;;5052005;28;20175;-71
2023/06/30 10:12:09;;;;;;;1.50;1.02;;;24.70;87.70;;;;;;5052202;28;20076;-71
2023/06/30 10:14:37;;;;;;;3.40;1.15;;;24.40;86.80;;;;;;5052249;28;20045;-71
2023/06/30 10:17:06;;;;;;;1.52;1.20;;;24.00;86.90;;;;;;5052357;28;20067;-71
2023/06/30 10:19:32;;;;;;;1.83;1.33;;;24.10;87.30;;;;;;5052098;28;20049;-71
2023/06/30 10:21:58;;;;;;;2.47;1.15;;;24.70;88.00;;;;;;5052101;28;20476;-71
2023/06/30 10:24:32;;;;;;;3.15;0.98;;;25.40;89.20;;;;;;5052449;28;20048;-72
2023/06/30 10:27:00;;;;;;;1.73;0.90;;;26.00;88.30;;;;;;5052065;28;20045;-73
2023/06/30 10:29:26;;;;;;;3.95;0.88;;;26.60;88.80;;;;;;5052080;28;20045;-71
2023/06/30 10:31:52;;;;;;;2.03;1.15;;;26.60;87.70;;;;;;5052425;28;20051;-71
2023/06/30 10:34:19;;;;;;;2.40;0.90;;;26.30;87.90;;;;;;5052131;28;20041;-71
2023/06/30 10:36:46;;;;;;;2.28;1.00;;;25.80;85.60;;;;;;5051976;28;20041;-71
2023/06/30 10:39:12;;;;;;;3.80;1.15;;;25.70;86.30;;;;;;5050331;28;20504;-72
2023/06/30 10:41:48;;;;;;;2.75;1.52;;;25.20;86.50;;;;;;5052056;28;20049;-71
2023/06/30 10:44:15;;;;;;;1.40;1.27;;;24.40;83.60;;;;;;5052375;28;20053;-71
2023/06/30 10:46:52;;;;;;;1.77;1.20;;;23.80;86.50;;;;;;5052113;28;20061;-71
2023/06/30 10:49:29;;;;;;;4.13;1.23;;;23.60;86.60;;;;;;5050861;28;20128;-71
2023/06/30 10:51:57;;;;;;;2.70;1.30;;;23.80;88.50;;;;;;5050866;28;20486;-72
2023/06/30 10:54:28;;;;;;;2.50;1.20;;;24.00;86.80;;;;;;5050899;28;20053;-71
2023/06/30 10:57:25;;;;;;;2.15;1.02;;;24.20;87.90;;;;;;5052074;28;20171;-72
2023/06/30 11:00:11;;;;;;;2.22;1.65;;;24.20;84.80;;;;;;5054770;28;20535;-72
2023/06/30 11:02:46;;;;;;;2.90;1.45;;;24.40;87.80;;;;;;5055933;28;20052;-72
2023/06/30 11:05:21;;;;;;;2.67;0.80;;;24.60;87.00;;;;;;5055125;28;20049;-71
2023/06/30 11:07:48;;;;;;;3.63;1.33;;;25.00;84.60;;;;;;5055915;28;20048;-72
2023/06/30 11:10:35;;;;;;;2.22;1.00;;;25.30;87.20;;;;;;5055429;28;20102;-72
2023/06/30 11:13:08;;;;;;;4.38;1.13;;;25.40;82.60;;;;;;5056077;28;20044;-72
2023/06/30 11:15:34;;;;;;;1.20;0.88;;;25.30;84.60;;;;;;5055158;28;20053;-72
2023/06/30 11:18:06;;;;;;;2.97;1.98;;;24.80;84.60;;;;;;5055509;28;20064;-72
2023/06/30 11:20:32;;;;;;;2.20;1.30;;;24.40;83.60;;;;;;5055655;28;20053;-69
2023/06/30 11:23:05;;;;;;;7.63;1.35;;;24.30;85.10;;;;;;5055241;28;20045;-72
2023/06/30 11:25:32;;;;;;;4.45;1.27;;;24.50;84.00;;;;;;5055210;28;20044;-71
2023/06/30 11:28:01;;;;;;;2.97;1.40;;;24.40;83.90;;;;;;5053906;28;20037;-73
2023/06/30 11:30:31;;;;;;;3.13;1.42;;;24.20;83.40;;;;;;5055703;28;20124;-72
2023/06/30 11:33:00;;;;;;;5.03;3.08;;;23.80;83.40;;;;;;5054990;28;20049;-71
2023/06/30 11:35:27;;;;;;;2.47;1.70;;;23.60;85.20;;;;;;5055276;28;20147;-72
2023/06/30 11:37:53;;;;;;;4.78;1.75;;;23.40;85.20;;;;;;5053947;28;20123;-71
2023/06/30 11:40:21;;;;;;;2.13;1.73;;;23.20;85.80;;;;;;5054887;28;20041;-71
2023/06/30 11:42:47;;;;;;;2.75;1.83;;;23.10;86.00;;;;;;5054972;28;20063;-72
2023/06/30 11:45:19;;;;;;;3.08;1.80;;;23.20;86.60;;;;;;5054953;28;20044;-72
2023/06/30 11:47:50;;;;;;;2.55;1.70;;;23.40;86.30;;;;;;5055116;28;20427;-71
2023/06/30 11:50:16;;;;;;;2.00;1.77;;;23.70;86.90;;;;;;5037678;28;20049;-72
2023/06/30 11:52:42;;;;;;;7.07;1.90;;;23.90;85.30;;;;;;5054788;28;20492;-72
2023/06/30 11:55:10;;;;;;;2.97;1.83;;;24.20;85.20;;;;;;5054981;28;20067;-71
2023/06/30 11:57:37;;;;;;;3.17;1.40;;;24.40;85.50;;;;;;5054656;28;20084;-71
2023/06/30 12:00:16;;;;;;;1.92;1.60;;;24.50;85.10;;;;;;5054874;28;20040;-72
2023/06/30 12:02:45;;;;;;;2.28;1.75;;;24.70;84.60;;;;;;5053562;28;20417;-71
2023/06/30 12:05:29;;;;;;;3.38;1.67;;;24.60;83.30;;;;;;5054626;28;20085;-72
2023/06/30 12:07:56;;;;;;;3.45;1.88;;;24.60;82.10;;;;;;5054316;28;20041;-72
2023/06/30 12:10:33;;;;;;;4.90;1.98;;;24.60;83.60;;;;;;5054144;28;20116;-72
2023/06/30 12:12:59;;;;;;;4.53;1.73;;;24.60;83.80;;;;;;5054467;28;20085;-71
2023/06/30 12:15:29;;;;;;;2.75;2.25;;;24.90;83.30;;;;;;5054435;28;20052;-72
2023/06/30 12:17:55;;;;;;;2.10;1.90;;;25.10;83.80;;;;;;5054414;28;20181;-71
2023/06/30 12:20:29;;;;;;;2.25;1.77;;;25.00;83.80;;;;;;5054277;28;20052;-69
2023/06/30 12:22:57;;;;;;;2.70;1.50;;;25.00;83.80;;;;;;5054261;28;20075;-70
2023/06/30 12:25:26;;;;;;;1.95;1.48;;;24.80;84.20;;;;;;5036910;28;20198;-70
2023/06/30 12:27:54;;;;;;;4.78;1.70;;;24.80;83.90;;;;;;5036672;28;20117;-70
2023/06/30 12:30:20;;;;;;;3.92;1.73;;;24.80;83.70;;;;;;5054014;28;20137;-69
2023/06/30 12:32:46;;;;;;;5.35;1.80;;;25.00;82.30;;;;;;5053829;28;20080;-69
2023/06/30 12:35:12;;;;;;;4.28;1.85;;;25.10;82.00;;;;;;5053911;28;20045;-70
2023/06/30 12:37:39;;;;;;;3.45;1.52;;;24.80;81.20;;;;;;5052420;28;20045;-70
2023/06/30 12:40:06;;;;;;;1.80;1.60;;;24.70;82.90;;;;;;5053675;28;20084;-69
2023/06/30 12:42:32;;;;;;;1.58;1.48;;;24.50;83.00;;;;;;5053943;28;20044;-70
2023/06/30 12:44:58;;;;;;;2.28;1.65;;;24.40;83.00;;;;;;5054019;28;20135;-69
2023/06/30 12:47:24;;;;;;;3.28;1.70;;;24.20;83.70;;;;;;5053727;28;20517;-69
2023/06/30 12:49:50;;;;;;;3.22;1.70;;;24.00;83.30;;;;;;5053700;28;20476;-70